sensor_id;sensor_type;location;lat;lon;timestamp;pressure;altitude;pressure_sealevel;temperature;humidity
9774;BME280;4926;42.670;23.316;2024-03-02T00:00:28;93940.72;;;6.80;75.68
9774;BME280;4926;42.670;23.316;2024-03-02T00:02:53;93947.59;;;6.76;77.14
9774;BME280;4926;42.670;23.316;2024-03-02T00:05:20;93952.44;;;6.76;77.36
9774;BME280;4926;42.670;23.316;2024-03-02T00:07:54;93955.91;;;6.76;77.59
9774;BME280;4926;42.670;23.316;2024-03-02T00:10:27;93952.53;;;6.82;76.87
9774;BME280;4926;42.670;23.316;2024-03-02T00:13:00;93965.69;;;6.82;75.92
9774;BME280;4926;42.670;23.316;2024-03-02T00:18:01;93949.19;;;6.88;76.44
9774;BME280;4926;42.670;23.316;2024-03-02T00:20:27;93952.09;;;6.98;75.98
9774;BME280;4926;42.670;23.316;2024-03-02T00:23:10;93948.72;;;7.03;76.17
9774;BME280;4926;42.670;23.316;2024-03-02T00:28:13;93950.91;;;7.11;75.63
9774;BME280;4926;42.670;23.316;2024-03-02T00:33:47;93954.59;;;7.26;76.00
9774;BME280;4926;42.670;23.316;2024-03-02T00:36:29;93944.28;;;7.32;75.72
9774;BME280;4926;42.670;23.316;2024-03-02T00:38:58;93943.03;;;7.41;75.08
9774;BME280;4926;42.670;23.316;2024-03-02T00:41:27;93941.59;;;7.38;75.61
9774;BME280;4926;42.670;23.316;2024-03-02T00:44:04;93945.84;;;7.45;75.13
9774;BME280;4926;42.670;23.316;2024-03-02T00:46:40;93948.03;;;7.51;74.44
9774;BME280;4926;42.670;23.316;2024-03-02T00:51:49;93945.13;;;7.41;74.67
9774;BME280;4926;42.670;23.316;2024-03-02T00:54:19;93940.97;;;7.42;73.77
9774;BME280;4926;42.670;23.316;2024-03-02T00:56:47;93931.94;;;7.41;73.91
9774;BME280;4926;42.670;23.316;2024-03-02T00:59:12;93936.75;;;7.39;75.35
9774;BME280;4926;42.670;23.316;2024-03-02T01:01:38;93939.66;;;7.49;75.50
9774;BME280;4926;42.670;23.316;2024-03-02T01:04:04;93936.28;;;7.55;74.28
9774;BME280;4926;42.670;23.316;2024-03-02T01:06:30;93929.97;;;7.50;75.19
9774;BME280;4926;42.670;23.316;2024-03-02T01:08:56;93946.78;;;7.62;74.21
9774;BME280;4926;42.670;23.316;2024-03-02T01:11:21;93943.34;;;7.64;74.83
9774;BME280;4926;42.670;23.316;2024-03-02T01:13:47;93933.00;;;7.68;73.29
9774;BME280;4926;42.670;23.316;2024-03-02T01:16:13;93930.91;;;7.69;73.19
9774;BME280;4926;42.670;23.316;2024-03-02T01:18:39;93933.72;;;7.73;73.10
9774;BME280;4926;42.670;23.316;2024-03-02T01:21:04;93924.69;;;7.70;72.87
9774;BME280;4926;42.670;23.316;2024-03-02T01:23:30;93921.22;;;7.70;73.75
9774;BME280;4926;42.670;23.316;2024-03-02T01:25:55;93915.66;;;7.68;74.43
9774;BME280;4926;42.670;23.316;2024-03-02T01:28:21;93910.06;;;7.66;73.34
9774;BME280;4926;42.670;23.316;2024-03-02T01:30:47;93910.81;;;7.70;73.09
9774;BME280;4926;42.670;23.316;2024-03-02T01:33:13;93904.56;;;7.70;73.77
9774;BME280;4926;42.670;23.316;2024-03-02T01:35:38;93904.53;;;7.68;73.18
9774;BME280;4926;42.670;23.316;2024-03-02T01:38:04;93907.34;;;7.70;73.28
9774;BME280;4926;42.670;23.316;2024-03-02T01:40:36;93909.41;;;7.67;72.99
9774;BME280;4926;42.670;23.316;2024-03-02T01:43:03;93908.53;;;7.55;74.85
9774;BME280;4926;42.670;23.316;2024-03-02T01:45:29;93913.44;;;7.60;74.07
9774;BME280;4926;42.670;23.316;2024-03-02T01:47:55;93910.75;;;7.64;74.58
9774;BME280;4926;42.670;23.316;2024-03-02T01:50:27;93908.75;;;7.71;74.92
9774;BME280;4926;42.670;23.316;2024-03-02T01:52:54;93914.25;;;7.67;75.37
9774;BME280;4926;42.670;23.316;2024-03-02T01:55:20;93907.38;;;7.72;73.49
9774;BME280;4926;42.670;23.316;2024-03-02T01:57:46;93901.13;;;7.71;73.98
9774;BME280;4926;42.670;23.316;2024-03-02T02:00:13;93899.09;;;7.76;73.76
9774;BME280;4926;42.670;23.316;2024-03-02T02:02:39;93908.84;;;7.79;74.73
9774;BME280;4926;42.670;23.316;2024-03-02T02:05:04;93904.75;;;7.84;74.22
9774;BME280;4926;42.670;23.316;2024-03-02T02:07:30;93904.81;;;7.92;73.85
9774;BME280;4926;42.670;23.316;2024-03-02T02:09:56;93909.09;;;8.01;72.98
9774;BME280;4926;42.670;23.316;2024-03-02T02:12:22;93902.13;;;7.98;74.09
9774;BME280;4926;42.670;23.316;2024-03-02T02:14:48;93904.19;;;7.96;73.98
9774;BME280;4926;42.670;23.316;2024-03-02T02:17:16;93900.63;;;7.89;74.74
9774;BME280;4926;42.670;23.316;2024-03-02T02:19:42;93918.59;;;7.82;74.77
9774;BME280;4926;42.670;23.316;2024-03-02T02:22:08;93910.28;;;7.82;74.35
9774;BME280;4926;42.670;23.316;2024-03-02T02:24:33;93905.44;;;7.87;74.80
9774;BME280;4926;42.670;23.316;2024-03-02T02:26:59;93900.59;;;7.85;74.23
9774;BME280;4926;42.670;23.316;2024-03-02T02:29:27;93908.88;;;7.81;74.26
9774;BME280;4926;42.670;23.316;2024-03-02T02:31:52;93917.28;;;7.89;73.51
9774;BME280;4926;42.670;23.316;2024-03-02T02:34:18;93908.81;;;7.77;75.31
9774;BME280;4926;42.670;23.316;2024-03-02T02:36:46;93910.41;;;7.94;73.19
9774;BME280;4926;42.670;23.316;2024-03-02T02:39:16;93910.56;;;8.08;74.43
9774;BME280;4926;42.670;23.316;2024-03-02T02:41:43;93902.28;;;8.14;72.58
9774;BME280;4926;42.670;23.316;2024-03-02T02:44:09;93914.16;;;8.19;72.90
9774;BME280;4926;42.670;23.316;2024-03-02T02:46:38;93909.09;;;8.01;73.89
9774;BME280;4926;42.670;23.316;2024-03-02T02:49:03;93912.59;;;8.04;73.55
9774;BME280;4926;42.670;23.316;2024-03-02T02:51:29;93922.34;;;8.07;73.79
9774;BME280;4926;42.670;23.316;2024-03-02T02:53:57;93918.13;;;8.04;73.37
9774;BME280;4926;42.670;23.316;2024-03-02T02:56:23;93912.63;;;8.08;73.41
9774;BME280;4926;42.670;23.316;2024-03-02T02:58:48;93918.25;;;8.12;72.46
9774;BME280;4926;42.670;23.316;2024-03-02T03:01:15;93916.13;;;8.10;72.99
9774;BME280;4926;42.670;23.316;2024-03-02T03:03:43;93914.78;;;8.13;73.12
9774;BME280;4926;42.670;23.316;2024-03-02T03:06:09;93918.16;;;8.06;73.26
9774;BME280;4926;42.670;23.316;2024-03-02T03:08:37;93915.97;;;7.94;73.46
9774;BME280;4926;42.670;23.316;2024-03-02T03:11:04;93914.47;;;7.85;74.75
9774;BME280;4926;42.670;23.316;2024-03-02T03:13:33;93904.91;;;7.98;73.61
9774;BME280;4926;42.670;23.316;2024-03-02T03:15:59;93910.47;;;8.00;73.92
9774;BME280;4926;42.670;23.316;2024-03-02T03:18:25;93912.22;;;7.73;74.44
9774;BME280;4926;42.670;23.316;2024-03-02T03:20:50;93911.03;;;7.89;74.24
9774;BME280;4926;42.670;23.316;2024-03-02T03:23:16;93918.03;;;7.94;74.26
9774;BME280;4926;42.670;23.316;2024-03-02T03:25:42;93909.06;;;7.97;74.43
9774;BME280;4926;42.670;23.316;2024-03-02T03:28:09;93916.63;;;7.93;75.08
9774;BME280;4926;42.670;23.316;2024-03-02T03:30:38;93916.69;;;7.97;74.50
9774;BME280;4926;42.670;23.316;2024-03-02T03:33:04;93911.06;;;7.93;74.16
9774;BME280;4926;42.670;23.316;2024-03-02T03:35:33;93918.88;;;8.06;74.59
9774;BME280;4926;42.670;23.316;2024-03-02T03:37:58;93907.75;;;8.06;73.32
9774;BME280;4926;42.670;23.316;2024-03-02T03:40:24;93912.44;;;7.90;73.95
9774;BME280;4926;42.670;23.316;2024-03-02T03:42:50;93912.47;;;7.94;74.74
9774;BME280;4926;42.670;23.316;2024-03-02T03:45:16;93919.31;;;7.87;74.32
9774;BME280;4926;42.670;23.316;2024-03-02T03:47:41;93919.28;;;7.82;75.00
9774;BME280;4926;42.670;23.316;2024-03-02T03:50:07;93915.75;;;7.78;74.80
9774;BME280;4926;42.670;23.316;2024-03-02T03:52:33;93913.75;;;7.82;75.28
9774;BME280;4926;42.670;23.316;2024-03-02T03:54:59;93909.63;;;7.88;75.16
9774;BME280;4926;42.670;23.316;2024-03-02T03:57:25;93911.00;;;7.87;74.45
9774;BME280;4926;42.670;23.316;2024-03-02T03:59:51;93919.25;;;7.78;74.71
9774;BME280;4926;42.670;23.316;2024-03-02T04:02:16;93916.22;;;7.60;75.55
9774;BME280;4926;42.670;23.316;2024-03-02T04:04:41;93915.44;;;7.52;75.88
9774;BME280;4926;42.670;23.316;2024-03-02T04:07:07;93915.44;;;7.52;76.54
9774;BME280;4926;42.670;23.316;2024-03-02T04:09:32;93914.13;;;7.59;76.40
9774;BME280;4926;42.670;23.316;2024-03-02T04:11:58;93916.34;;;7.68;76.91
9774;BME280;4926;42.670;23.316;2024-03-02T04:14:23;93912.88;;;7.68;76.94
9774;BME280;4926;42.670;23.316;2024-03-02T04:16:49;93912.84;;;7.66;76.80
9774;BME280;4926;42.670;23.316;2024-03-02T04:19:14;93910.16;;;7.72;76.15
9774;BME280;4926;42.670;23.316;2024-03-02T04:21:40;93906.03;;;7.77;76.79
9774;BME280;4926;42.670;23.316;2024-03-02T04:24:05;93906.81;;;7.83;76.06
9774;BME280;4926;42.670;23.316;2024-03-02T04:26:31;93911.69;;;7.85;77.34
9774;BME280;4926;42.670;23.316;2024-03-02T04:28:59;93918.03;;;7.94;76.35
9774;BME280;4926;42.670;23.316;2024-03-02T04:31:25;93914.63;;;8.01;76.03
9774;BME280;4926;42.670;23.316;2024-03-02T04:33:50;93917.44;;;8.03;75.59
9774;BME280;4926;42.670;23.316;2024-03-02T04:36:15;93930.06;;;8.12;75.92
9774;BME280;4926;42.670;23.316;2024-03-02T04:38:41;93920.41;;;8.19;74.86
9774;BME280;4926;42.670;23.316;2024-03-02T04:41:07;93920.25;;;8.07;75.53
9774;BME280;4926;42.670;23.316;2024-03-02T04:43:33;93927.13;;;8.02;75.98
9774;BME280;4926;42.670;23.316;2024-03-02T04:45:59;93927.16;;;8.04;74.90
9774;BME280;4926;42.670;23.316;2024-03-02T04:48:24;93920.19;;;7.99;75.48
9774;BME280;4926;42.670;23.316;2024-03-02T04:50:50;93921.56;;;8.00;75.73
9774;BME280;4926;42.670;23.316;2024-03-02T04:53:16;93924.22;;;7.90;76.92
9774;BME280;4926;42.670;23.316;2024-03-02T04:55:41;93929.94;;;8.04;76.02
9774;BME280;4926;42.670;23.316;2024-03-02T04:58:07;93928.69;;;8.13;76.14
9774;BME280;4926;42.670;23.316;2024-03-02T05:00:33;93925.88;;;8.11;76.26
9774;BME280;4926;42.670;23.316;2024-03-02T05:02:58;93929.34;;;8.12;75.47
9774;BME280;4926;42.670;23.316;2024-03-02T05:05:24;93928.69;;;8.13;76.35
9774;BME280;4926;42.670;23.316;2024-03-02T05:07:49;93932.16;;;8.16;75.95
9774;BME280;4926;42.670;23.316;2024-03-02T05:10:15;93935.44;;;8.00;77.77
9774;BME280;4926;42.670;23.316;2024-03-02T05:12:41;93934.78;;;8.04;77.26
9774;BME280;4926;42.670;23.316;2024-03-02T05:15:06;93939.66;;;8.03;77.20
9774;BME280;4926;42.670;23.316;2024-03-02T05:17:36;93940.31;;;8.00;76.83
9774;BME280;4926;42.670;23.316;2024-03-02T05:20:02;93947.31;;;8.05;78.00
9774;BME280;4926;42.670;23.316;2024-03-02T05:22:29;93950.72;;;8.01;77.10
9774;BME280;4926;42.670;23.316;2024-03-02T05:24:54;93950.72;;;8.01;77.02
9774;BME280;4926;42.670;23.316;2024-03-02T05:27:19;93947.28;;;8.03;77.38
9774;BME280;4926;42.670;23.316;2024-03-02T05:29:45;93949.41;;;8.06;77.29
9774;BME280;4926;42.670;23.316;2024-03-02T05:32:11;93950.13;;;8.09;77.63
9774;BME280;4926;42.670;23.316;2024-03-02T05:34:36;93959.81;;;8.06;77.08
9774;BME280;4926;42.670;23.316;2024-03-02T05:37:02;93961.22;;;8.07;77.81
9774;BME280;4926;42.670;23.316;2024-03-02T05:39:27;93956.34;;;8.05;77.58
9774;BME280;4926;42.670;23.316;2024-03-02T05:41:53;93960.47;;;8.04;77.63
9774;BME280;4926;42.670;23.316;2024-03-02T05:44:18;93972.31;;;8.07;77.58
9774;BME280;4926;42.670;23.316;2024-03-02T05:46:45;93970.31;;;8.13;77.08
9774;BME280;4926;42.670;23.316;2024-03-02T05:49:11;93972.44;;;8.17;76.79
9774;BME280;4926;42.670;23.316;2024-03-02T05:51:37;93967.53;;;8.13;77.12
9774;BME280;4926;42.670;23.316;2024-03-02T05:54:05;93971.69;;;8.12;76.98
9774;BME280;4926;42.670;23.316;2024-03-02T05:56:33;93974.47;;;8.14;78.10
9774;BME280;4926;42.670;23.316;2024-03-02T05:59:04;93966.78;;;8.09;78.33
9774;BME280;4926;42.670;23.316;2024-03-02T06:01:40;93967.50;;;8.09;76.86
9774;BME280;4926;42.670;23.316;2024-03-02T06:04:06;93978.53;;;8.05;76.77
9774;BME280;4926;42.670;23.316;2024-03-02T06:06:33;93981.34;;;8.07;78.33
9774;BME280;4926;42.670;23.316;2024-03-02T06:09:02;93974.44;;;8.10;77.52
9774;BME280;4926;42.670;23.316;2024-03-02T06:11:38;93970.94;;;8.08;77.63
9774;BME280;4926;42.670;23.316;2024-03-02T06:14:05;93978.69;;;8.17;77.87
9774;BME280;4926;42.670;23.316;2024-03-02T06:16:37;93976.63;;;8.20;78.34
9774;BME280;4926;42.670;23.316;2024-03-02T06:19:03;93979.38;;;8.18;78.56
9774;BME280;4926;42.670;23.316;2024-03-02T06:21:28;93980.72;;;8.13;77.94
9774;BME280;4926;42.670;23.316;2024-03-02T06:23:54;93978.75;;;8.22;78.74
9774;BME280;4926;42.670;23.316;2024-03-02T06:26:20;93975.78;;;8.05;80.27
9774;BME280;4926;42.670;23.316;2024-03-02T06:28:46;93974.25;;;7.94;78.41
9774;BME280;4926;42.670;23.316;2024-03-02T06:31:14;93978.19;;;7.77;79.62
9774;BME280;4926;42.670;23.316;2024-03-02T06:33:40;93986.91;;;7.55;79.43
9774;BME280;4926;42.670;23.316;2024-03-02T06:36:09;93993.78;;;7.50;80.22
9774;BME280;4926;42.670;23.316;2024-03-02T06:38:37;93981.13;;;7.39;82.28
9774;BME280;4926;42.670;23.316;2024-03-02T06:41:05;93981.78;;;7.35;82.40
9774;BME280;4926;42.670;23.316;2024-03-02T06:43:31;93987.06;;;7.19;82.78
9774;BME280;4926;42.670;23.316;2024-03-02T06:45:56;93980.78;;;7.15;82.87
9774;BME280;4926;42.670;23.316;2024-03-02T06:48:27;93989.81;;;7.17;83.22
9774;BME280;4926;42.670;23.316;2024-03-02T06:50:55;93987.00;;;7.13;83.54
9774;BME280;4926;42.670;23.316;2024-03-02T06:53:21;94003.06;;;7.23;82.77
9774;BME280;4926;42.670;23.316;2024-03-02T06:55:47;93993.31;;;7.20;83.78
9774;BME280;4926;42.670;23.316;2024-03-02T06:58:14;93992.78;;;7.31;83.62
9774;BME280;4926;42.670;23.316;2024-03-02T07:00:40;93996.31;;;7.34;83.26
9774;BME280;4926;42.670;23.316;2024-03-02T07:03:06;93999.81;;;7.36;82.40
9774;BME280;4926;42.670;23.316;2024-03-02T07:05:31;94002.59;;;7.36;82.29
9774;BME280;4926;42.670;23.316;2024-03-02T07:07:57;94000.47;;;7.35;82.02
9774;BME280;4926;42.670;23.316;2024-03-02T07:10:22;93992.03;;;7.27;82.29
9774;BME280;4926;42.670;23.316;2024-03-02T07:12:48;94005.25;;;7.28;81.70
9774;BME280;4926;42.670;23.316;2024-03-02T07:15:13;94002.25;;;7.14;82.84
9774;BME280;4926;42.670;23.316;2024-03-02T07:17:58;94004.44;;;7.22;83.35
9774;BME280;4926;42.670;23.316;2024-03-02T07:20:23;94007.31;;;7.28;83.20
9774;BME280;4926;42.670;23.316;2024-03-02T07:22:49;94012.25;;;7.33;81.92
9774;BME280;4926;42.670;23.316;2024-03-02T07:25:14;94002.00;;;7.44;82.72
9774;BME280;4926;42.670;23.316;2024-03-02T07:27:40;94006.16;;;7.43;82.06
9774;BME280;4926;42.670;23.316;2024-03-02T07:30:06;94008.28;;;7.46;80.64
9774;BME280;4926;42.670;23.316;2024-03-02T07:32:32;94010.53;;;7.58;81.55
9774;BME280;4926;42.670;23.316;2024-03-02T07:34:57;94013.94;;;7.53;81.14
9774;BME280;4926;42.670;23.316;2024-03-02T07:37:23;94011.22;;;7.59;81.93
9774;BME280;4926;42.670;23.316;2024-03-02T07:39:49;94009.88;;;7.62;80.31
9774;BME280;4926;42.670;23.316;2024-03-02T07:42:15;94010.03;;;7.72;80.30
9774;BME280;4926;42.670;23.316;2024-03-02T07:44:40;94012.22;;;7.79;80.88
9774;BME280;4926;42.670;23.316;2024-03-02T07:47:06;94017.75;;;7.77;80.61
9774;BME280;4926;42.670;23.316;2024-03-02T07:49:31;94021.16;;;7.72;80.23
9774;BME280;4926;42.670;23.316;2024-03-02T07:51:57;94022.69;;;7.83;79.30
9774;BME280;4926;42.670;23.316;2024-03-02T07:54:23;94022.84;;;7.95;79.59
9774;BME280;4926;42.670;23.316;2024-03-02T07:56:51;94027.09;;;8.02;79.70
9774;BME280;4926;42.670;23.316;2024-03-02T07:59:17;94025.78;;;8.07;80.04
9774;BME280;4926;42.670;23.316;2024-03-02T08:01:43;94023.00;;;8.07;78.92
9774;BME280;4926;42.670;23.316;2024-03-02T08:04:20;94028.38;;;7.93;78.74
9774;BME280;4926;42.670;23.316;2024-03-02T08:06:46;94033.28;;;7.97;79.04
9774;BME280;4926;42.670;23.316;2024-03-02T08:09:14;94035.97;;;7.91;78.41
9774;BME280;4926;42.670;23.316;2024-03-02T08:11:40;94031.22;;;7.99;78.27
9774;BME280;4926;42.670;23.316;2024-03-02T08:14:08;94039.69;;;8.09;79.13
9774;BME280;4926;42.670;23.316;2024-03-02T08:16:37;94035.41;;;8.02;79.50
9774;BME280;4926;42.670;23.316;2024-03-02T08:19:02;94038.13;;;7.96;79.47
9774;BME280;4926;42.670;23.316;2024-03-02T08:21:28;94035.22;;;7.88;78.84
9774;BME280;4926;42.670;23.316;2024-03-02T08:23:56;94028.78;;;7.73;79.75
9774;BME280;4926;42.670;23.316;2024-03-02T08:26:23;94038.38;;;7.64;80.68
9774;BME280;4926;42.670;23.316;2024-03-02T08:28:48;94038.34;;;7.62;82.03
9774;BME280;4926;42.670;23.316;2024-03-02T08:31:14;94025.13;;;7.61;80.40
9774;BME280;4926;42.670;23.316;2024-03-02T08:33:39;94027.91;;;7.61;81.19
9774;BME280;4926;42.670;23.316;2024-03-02T08:36:06;94035.31;;;7.46;82.33
9774;BME280;4926;42.670;23.316;2024-03-02T08:38:32;94027.06;;;7.50;82.58
9774;BME280;4926;42.670;23.316;2024-03-02T08:40:58;94031.41;;;7.63;81.77
9774;BME280;4926;42.670;23.316;2024-03-02T08:43:26;94028.66;;;7.65;81.47
9774;BME280;4926;42.670;23.316;2024-03-02T08:45:52;94033.66;;;7.75;82.22
9774;BME280;4926;42.670;23.316;2024-03-02T08:48:17;94034.31;;;7.71;82.46
9774;BME280;4926;42.670;23.316;2024-03-02T08:50:46;94035.03;;;7.74;81.79
9774;BME280;4926;42.670;23.316;2024-03-02T08:53:14;94027.47;;;7.78;80.40
9774;BME280;4926;42.670;23.316;2024-03-02T08:55:45;94030.22;;;7.76;81.38
9774;BME280;4926;42.670;23.316;2024-03-02T08:58:14;94041.50;;;7.91;81.73
9774;BME280;4926;42.670;23.316;2024-03-02T09:00:40;94020.13;;;7.99;80.42
9774;BME280;4926;42.670;23.316;2024-03-02T09:03:06;94035.56;;;8.14;78.03
9774;BME280;4926;42.670;23.316;2024-03-02T09:05:35;94014.28;;;7.79;79.80
9774;BME280;4926;42.670;23.316;2024-03-02T09:08:01;94038.03;;;7.90;79.49
9774;BME280;4926;42.670;23.316;2024-03-02T09:10:31;94036.72;;;7.95;80.53
9774;BME280;4926;42.670;23.316;2024-03-02T09:13:00;94036.78;;;7.99;80.23
9774;BME280;4926;42.670;23.316;2024-03-02T09:15:28;94044.44;;;8.03;79.39
9774;BME280;4926;42.670;23.316;2024-03-02T09:17:54;94041.81;;;8.13;78.92
9774;BME280;4926;42.670;23.316;2024-03-02T09:20:19;94039.84;;;8.22;80.54
9774;BME280;4926;42.670;23.316;2024-03-02T09:22:47;94049.16;;;8.44;79.16
9774;BME280;4926;42.670;23.316;2024-03-02T09:25:16;94049.28;;;8.57;78.69
9774;BME280;4926;42.670;23.316;2024-03-02T09:27:44;94052.97;;;8.75;77.17
9774;BME280;4926;42.670;23.316;2024-03-02T09:30:13;94036.94;;;8.70;75.73
9774;BME280;4926;42.670;23.316;2024-03-02T09:32:39;94049.38;;;8.63;75.22
9774;BME280;4926;42.670;23.316;2024-03-02T09:35:05;94057.78;;;8.71;76.53
9774;BME280;4926;42.670;23.316;2024-03-02T09:37:30;94050.84;;;8.70;76.03
9774;BME280;4926;42.670;23.316;2024-03-02T09:39:56;94057.28;;;8.88;75.69
9774;BME280;4926;42.670;23.316;2024-03-02T09:42:21;94058.78;;;8.98;76.12
9774;BME280;4926;42.670;23.316;2024-03-02T09:44:48;94056.78;;;9.08;74.81
9774;BME280;4926;42.670;23.316;2024-03-02T09:47:14;94063.06;;;9.09;74.44
9774;BME280;4926;42.670;23.316;2024-03-02T09:49:40;94063.78;;;9.11;74.08
9774;BME280;4926;42.670;23.316;2024-03-02T09:52:05;94061.59;;;9.04;73.67
9774;BME280;4926;42.670;23.316;2024-03-02T09:54:35;94058.94;;;9.16;74.44
9774;BME280;4926;42.670;23.316;2024-03-02T09:57:04;94059.03;;;9.28;73.08
9774;BME280;4926;42.670;23.316;2024-03-02T09:59:30;94066.06;;;9.33;73.90
9774;BME280;4926;42.670;23.316;2024-03-02T10:01:59;94060.44;;;9.27;74.62
9774;BME280;4926;42.670;23.316;2024-03-02T10:04:29;94054.88;;;9.25;74.71
9774;BME280;4926;42.670;23.316;2024-03-02T10:07:18;94051.31;;;9.18;75.31
9774;BME280;4926;42.670;23.316;2024-03-02T10:09:45;94060.38;;;9.21;75.04
9774;BME280;4926;42.670;23.316;2024-03-02T10:12:12;94054.88;;;9.25;74.81
9774;BME280;4926;42.670;23.316;2024-03-02T10:14:39;94052.75;;;9.23;76.13
9774;BME280;4926;42.670;23.316;2024-03-02T10:17:10;94056.19;;;9.18;74.94
9774;BME280;4926;42.670;23.316;2024-03-02T10:19:36;94049.22;;;9.17;75.67
9774;BME280;4926;42.670;23.316;2024-03-02T10:22:09;94061.13;;;9.26;75.84
9774;BME280;4926;42.670;23.316;2024-03-02T10:24:37;94051.97;;;9.15;76.16
9774;BME280;4926;42.670;23.316;2024-03-02T10:27:25;94056.66;;;8.94;75.01
9774;BME280;4926;42.670;23.316;2024-03-02T10:29:51;94056.03;;;9.04;75.14
9774;BME280;4926;42.670;23.316;2024-03-02T10:32:17;94051.75;;;8.91;75.24
9774;BME280;4926;42.670;23.316;2024-03-02T10:34:44;94053.94;;;9.02;76.46
9774;BME280;4926;42.670;23.316;2024-03-02T10:37:11;94054.03;;;9.12;76.23
9774;BME280;4926;42.670;23.316;2024-03-02T10:39:39;94061.69;;;9.10;75.54
9774;BME280;4926;42.670;23.316;2024-03-02T10:42:06;94057.41;;;9.01;75.45
9774;BME280;4926;42.670;23.316;2024-03-02T10:44:32;94053.16;;;8.92;77.41
9774;BME280;4926;42.670;23.316;2024-03-02T10:47:03;94056.00;;;8.98;76.06
9774;BME280;4926;42.670;23.316;2024-03-02T10:49:33;94053.13;;;8.89;76.52
9774;BME280;4926;42.670;23.316;2024-03-02T10:51:59;94048.22;;;8.84;76.46
9774;BME280;4926;42.670;23.316;2024-03-02T10:54:25;94042.78;;;8.96;75.99
9774;BME280;4926;42.670;23.316;2024-03-02T10:57:01;94046.25;;;8.99;76.29
9774;BME280;4926;42.670;23.316;2024-03-02T10:59:37;94042.59;;;8.80;77.60
9774;BME280;4926;42.670;23.316;2024-03-02T11:02:15;94047.69;;;9.02;76.12
9774;BME280;4926;42.670;23.316;2024-03-02T11:04:42;94041.41;;;9.01;76.27
9774;BME280;4926;42.670;23.316;2024-03-02T11:07:09;94033.06;;;9.01;77.18
9774;BME280;4926;42.670;23.316;2024-03-02T11:09:44;94028.91;;;8.98;77.37
9774;BME280;4926;42.670;23.316;2024-03-02T11:12:27;94039.44;;;9.14;77.99
9774;BME280;4926;42.670;23.316;2024-03-02T11:14:55;94034.66;;;9.22;76.98
9774;BME280;4926;42.670;23.316;2024-03-02T11:17:21;94039.56;;;9.24;75.40
9774;BME280;4926;42.670;23.316;2024-03-02T11:19:48;94037.38;;;9.14;74.90
9774;BME280;4926;42.670;23.316;2024-03-02T11:22:15;94036.66;;;9.14;74.83
9774;BME280;4926;42.670;23.316;2024-03-02T11:24:52;94032.34;;;8.95;76.00
9774;BME280;4926;42.670;23.316;2024-03-02T11:33:01;94028.94;;;9.04;75.58
9774;BME280;4926;42.670;23.316;2024-03-02T11:35:34;94026.72;;;8.91;77.43
9774;BME280;4926;42.670;23.316;2024-03-02T11:38:01;94028.09;;;8.87;77.13
9774;BME280;4926;42.670;23.316;2024-03-02T11:40:30;94029.47;;;8.86;77.10
9774;BME280;4926;42.670;23.316;2024-03-02T11:42:56;94028.06;;;8.83;78.00
9774;BME280;4926;42.670;23.316;2024-03-02T11:45:23;94029.38;;;8.78;77.02
9774;BME280;4926;42.670;23.316;2024-03-02T11:47:57;94038.28;;;8.65;78.30
9774;BME280;4926;42.670;23.316;2024-03-02T11:50:52;94034.94;;;8.78;77.14
9774;BME280;4926;42.670;23.316;2024-03-02T11:53:20;94026.44;;;8.62;77.12
9774;BME280;4926;42.670;23.316;2024-03-02T11:55:47;94033.41;;;8.65;78.32
9774;BME280;4926;42.670;23.316;2024-03-02T11:58:23;94030.69;;;8.69;77.54
9774;BME280;4926;42.670;23.316;2024-03-02T12:00:53;94027.13;;;8.61;78.21
9774;BME280;4926;42.670;23.316;2024-03-02T12:03:28;94027.81;;;8.61;79.45
9774;BME280;4926;42.670;23.316;2024-03-02T12:05:55;94025.13;;;8.67;78.21
9774;BME280;4926;42.670;23.316;2024-03-02T12:08:21;94031.41;;;8.74;78.62
9774;BME280;4926;42.670;23.316;2024-03-02T12:11:02;94031.31;;;8.64;78.87
9774;BME280;4926;42.670;23.316;2024-03-02T12:13:28;94016.69;;;8.61;78.64
9774;BME280;4926;42.670;23.316;2024-03-02T12:15:54;94034.81;;;8.66;78.59
9774;BME280;4926;42.670;23.316;2024-03-02T12:18:21;94025.13;;;8.69;77.28
9774;BME280;4926;42.670;23.316;2024-03-02T12:20:48;94034.22;;;8.76;77.38
9774;BME280;4926;42.670;23.316;2024-03-02T12:23:14;94025.84;;;8.72;78.25
9774;BME280;4926;42.670;23.316;2024-03-02T12:25:40;94030.09;;;8.79;77.40
9774;BME280;4926;42.670;23.316;2024-03-02T12:28:06;94017.56;;;8.78;77.25
9774;BME280;4926;42.670;23.316;2024-03-02T12:30:40;94035.13;;;8.97;76.46
9774;BME280;4926;42.670;23.316;2024-03-02T12:33:06;94027.63;;;9.13;75.84
9774;BME280;4926;42.670;23.316;2024-03-02T12:35:32;94030.50;;;9.23;75.70
9774;BME280;4926;42.670;23.316;2024-03-02T12:38:00;94029.72;;;9.11;75.76
9774;BME280;4926;42.670;23.316;2024-03-02T12:40:30;94028.38;;;9.18;76.17
9774;BME280;4926;42.670;23.316;2024-03-02T12:43:01;94021.44;;;9.21;76.27
9774;BME280;4926;42.670;23.316;2024-03-02T12:45:27;94027.00;;;9.21;75.56
9774;BME280;4926;42.670;23.316;2024-03-02T12:47:52;94028.31;;;9.12;76.14
9774;BME280;4926;42.670;23.316;2024-03-02T12:50:18;94026.38;;;9.29;76.05
9774;BME280;4926;42.670;23.316;2024-03-02T12:52:51;94036.09;;;9.26;76.02
9774;BME280;4926;42.670;23.316;2024-03-02T12:55:17;94029.78;;;9.21;75.39
9774;BME280;4926;42.670;23.316;2024-03-02T12:57:52;94033.91;;;9.16;76.51
9774;BME280;4926;42.670;23.316;2024-03-02T13:00:21;94027.75;;;9.28;76.61
9774;BME280;4926;42.670;23.316;2024-03-02T13:02:47;94036.72;;;9.20;76.50
9774;BME280;4926;42.670;23.316;2024-03-02T13:05:13;94031.19;;;9.22;75.14
9774;BME280;4926;42.670;23.316;2024-03-02T13:07:40;94035.47;;;9.35;75.00
9774;BME280;4926;42.670;23.316;2024-03-02T13:10:06;94032.06;;;9.45;73.62
9774;BME280;4926;42.670;23.316;2024-03-02T13:12:35;94040.31;;;9.33;75.39
9774;BME280;4926;42.670;23.316;2024-03-02T13:15:03;94035.38;;;9.27;75.22
9774;BME280;4926;42.670;23.316;2024-03-02T13:17:29;94034.81;;;9.39;74.30
9774;BME280;4926;42.670;23.316;2024-03-02T13:19:56;94032.72;;;9.41;74.24
9774;BME280;4926;42.670;23.316;2024-03-02T13:22:23;94032.72;;;9.37;73.68
9774;BME280;4926;42.670;23.316;2024-03-02T13:24:50;94038.38;;;9.49;73.96
9774;BME280;4926;42.670;23.316;2024-03-02T13:27:17;94031.38;;;9.44;73.39
9774;BME280;4926;42.670;23.316;2024-03-02T13:29:51;94041.19;;;9.55;73.22
9774;BME280;4926;42.670;23.316;2024-03-02T13:32:17;94038.41;;;9.53;73.00
9774;BME280;4926;42.670;23.316;2024-03-02T13:34:45;94037.63;;;9.45;73.46
9774;BME280;4926;42.670;23.316;2024-03-02T13:37:12;94043.19;;;9.45;72.35
9774;BME280;4926;42.670;23.316;2024-03-02T13:39:38;94046.00;;;9.47;73.43